sensor_id;sensor_type;location;lat;lon;timestamp;pressure;altitude;pressure_sealevel;temperature;humidity
7668;BME280;3876;42.204;24.686;2023-04-28T00:01:35;99627.22;;;11.97;55.02
7668;BME280;3876;42.204;24.686;2023-04-28T00:04:02;99627.88;;;12.02;55.10
7668;BME280;3876;42.204;24.686;2023-04-28T00:06:30;99622.91;;;11.98;54.67
7668;BME280;3876;42.204;24.686;2023-04-28T00:08:57;99618.66;;;11.97;54.36
7668;BME280;3876;42.204;24.686;2023-04-28T00:11:24;99627.25;;;11.96;54.52
7668;BME280;3876;42.204;24.686;2023-04-28T00:13:51;99626.56;;;11.91;55.06
7668;BME280;3876;42.204;24.686;2023-04-28T00:16:17;99632.44;;;11.94;55.01
7668;BME280;3876;42.204;24.686;2023-04-28T00:18:44;99619.84;;;11.87;55.14
7668;BME280;3876;42.204;24.686;2023-04-28T00:21:11;99617.25;;;11.87;55.75
7668;BME280;3876;42.204;24.686;2023-04-28T00:23:39;99629.97;;;11.91;56.24
7668;BME280;3876;42.204;24.686;2023-04-28T00:26:06;99634.38;;;11.88;56.90
7668;BME280;3876;42.204;24.686;2023-04-28T00:28:32;99629.31;;;11.85;57.59
7668;BME280;3876;42.204;24.686;2023-04-28T00:30:59;99632.00;;;11.82;57.67
7668;BME280;3876;42.204;24.686;2023-04-28T00:33:26;99631.19;;;11.80;58.29
7668;BME280;3876;42.204;24.686;2023-04-28T00:35:58;99626.59;;;11.62;59.18
7668;BME280;3876;42.204;24.686;2023-04-28T00:38:25;99625.19;;;11.51;59.52
7668;BME280;3876;42.204;24.686;2023-04-28T00:40:53;99627.25;;;11.40;59.85
7668;BME280;3876;42.204;24.686;2023-04-28T00:43:20;99625.84;;;11.30;60.56
7668;BME280;3876;42.204;24.686;2023-04-28T00:45:48;99624.16;;;11.29;60.69
7668;BME280;3876;42.204;24.686;2023-04-28T00:48:15;99620.72;;;11.30;61.01
7668;BME280;3876;42.204;24.686;2023-04-28T00:50:42;99632.66;;;11.31;61.46
7668;BME280;3876;42.204;24.686;2023-04-28T00:53:09;99628.34;;;11.32;61.31
7668;BME280;3876;42.204;24.686;2023-04-28T00:55:36;99626.69;;;11.31;60.92
7668;BME280;3876;42.204;24.686;2023-04-28T00:58:05;99626.81;;;11.26;61.45
7668;BME280;3876;42.204;24.686;2023-04-28T01:00:32;99634.59;;;11.23;61.82
7668;BME280;3876;42.204;24.686;2023-04-28T01:02:59;99630.75;;;11.08;62.44
7668;BME280;3876;42.204;24.686;2023-04-28T01:05:28;99615.47;;;10.75;62.91
7668;BME280;3876;42.204;24.686;2023-04-28T01:07:56;99631.41;;;10.53;64.43
7668;BME280;3876;42.204;24.686;2023-04-28T01:10:22;99631.50;;;10.50;64.59
7668;BME280;3876;42.204;24.686;2023-04-28T01:12:49;99634.13;;;10.47;64.28
7668;BME280;3876;42.204;24.686;2023-04-28T01:15:18;99626.69;;;10.38;65.15
7668;BME280;3876;42.204;24.686;2023-04-28T01:17:46;99628.38;;;10.39;65.74
7668;BME280;3876;42.204;24.686;2023-04-28T01:20:13;99617.44;;;10.33;65.33
7668;BME280;3876;42.204;24.686;2023-04-28T01:22:40;99624.03;;;10.43;65.64
7668;BME280;3876;42.204;24.686;2023-04-28T01:25:08;99623.19;;;10.42;65.77
7668;BME280;3876;42.204;24.686;2023-04-28T01:27:35;99624.25;;;10.34;66.14
7668;BME280;3876;42.204;24.686;2023-04-28T01:30:02;99634.38;;;10.38;66.27
7668;BME280;3876;42.204;24.686;2023-04-28T01:32:29;99626.84;;;10.32;67.02
7668;BME280;3876;42.204;24.686;2023-04-28T01:34:56;99630.38;;;10.28;67.50
7668;BME280;3876;42.204;24.686;2023-04-28T01:37:23;99623.50;;;10.30;67.02
7668;BME280;3876;42.204;24.686;2023-04-28T01:39:49;99625.31;;;10.25;67.78
7668;BME280;3876;42.204;24.686;2023-04-28T01:42:18;99625.41;;;10.22;67.97
7668;BME280;3876;42.204;24.686;2023-04-28T01:44:44;99610.34;;;10.09;68.59
7668;BME280;3876;42.204;24.686;2023-04-28T01:47:11;99622.38;;;10.05;68.72
7668;BME280;3876;42.204;24.686;2023-04-28T01:49:38;99625.75;;;10.07;68.68
7668;BME280;3876;42.204;24.686;2023-04-28T01:52:05;99626.69;;;10.05;69.09
7668;BME280;3876;42.204;24.686;2023-04-28T01:54:32;99634.47;;;10.00;69.15
7668;BME280;3876;42.204;24.686;2023-04-28T01:56:59;99631.81;;;10.03;69.14
7668;BME280;3876;42.204;24.686;2023-04-28T01:59:28;99631.09;;;9.98;69.66
7668;BME280;3876;42.204;24.686;2023-04-28T02:01:54;99629.41;;;9.97;69.43
7668;BME280;3876;42.204;24.686;2023-04-28T02:04:21;99623.19;;;9.72;69.76
7668;BME280;3876;42.204;24.686;2023-04-28T02:06:49;99632.91;;;9.58;69.83
7668;BME280;3876;42.204;24.686;2023-04-28T02:09:16;99630.41;;;9.55;70.39
7668;BME280;3876;42.204;24.686;2023-04-28T02:11:42;99630.75;;;9.39;71.14
7668;BME280;3876;42.204;24.686;2023-04-28T02:14:09;99639.44;;;9.32;71.72
7668;BME280;3876;42.204;24.686;2023-04-28T02:16:37;99625.00;;;9.28;72.27
7668;BME280;3876;42.204;24.686;2023-04-28T02:19:04;99633.53;;;9.27;71.94
7668;BME280;3876;42.204;24.686;2023-04-28T02:21:31;99652.28;;;9.29;72.52
7668;BME280;3876;42.204;24.686;2023-04-28T02:23:58;99651.66;;;9.18;72.86
7668;BME280;3876;42.204;24.686;2023-04-28T02:26:25;99659.44;;;9.14;73.78
7668;BME280;3876;42.204;24.686;2023-04-28T02:28:52;99652.09;;;8.97;74.35
7668;BME280;3876;42.204;24.686;2023-04-28T02:31:18;99662.44;;;8.91;75.83
7668;BME280;3876;42.204;24.686;2023-04-28T02:33:47;99671.09;;;8.84;76.43
7668;BME280;3876;42.204;24.686;2023-04-28T02:36:13;99669.41;;;8.83;77.43
7668;BME280;3876;42.204;24.686;2023-04-28T02:38:40;99672.88;;;8.80;77.50
7668;BME280;3876;42.204;24.686;2023-04-28T02:41:07;99673.91;;;8.70;77.58
7668;BME280;3876;42.204;24.686;2023-04-28T02:43:35;99677.59;;;8.56;78.89
7668;BME280;3876;42.204;24.686;2023-04-28T02:46:02;99680.25;;;8.50;79.44
7668;BME280;3876;42.204;24.686;2023-04-28T02:48:30;99683.66;;;8.49;79.44
7668;BME280;3876;42.204;24.686;2023-04-28T02:50:58;99684.63;;;8.41;79.25
7668;BME280;3876;42.204;24.686;2023-04-28T02:53:25;99688.16;;;8.34;78.76
7668;BME280;3876;42.204;24.686;2023-04-28T02:55:52;99685.81;;;8.19;79.84
7668;BME280;3876;42.204;24.686;2023-04-28T02:58:19;99686.78;;;8.14;80.20
7668;BME280;3876;42.204;24.686;2023-04-28T03:00:46;99683.56;;;8.01;81.15
7668;BME280;3876;42.204;24.686;2023-04-28T03:03:13;99681.03;;;7.98;81.19
7668;BME280;3876;42.204;24.686;2023-04-28T03:05:40;99684.56;;;7.91;81.08
7668;BME280;3876;42.204;24.686;2023-04-28T03:08:08;99671.97;;;7.80;81.09
7668;BME280;3876;42.204;24.686;2023-04-28T03:10:35;99688.88;;;7.87;80.73
7668;BME280;3876;42.204;24.686;2023-04-28T03:13:02;99688.16;;;7.78;81.43
7668;BME280;3876;42.204;24.686;2023-04-28T03:15:28;99690.72;;;7.76;80.67
7668;BME280;3876;42.204;24.686;2023-04-28T03:17:55;99697.44;;;7.85;80.59
7668;BME280;3876;42.204;24.686;2023-04-28T03:20:22;99695.63;;;7.91;80.84
7668;BME280;3876;42.204;24.686;2023-04-28T03:22:49;99696.44;;;7.92;79.92
7668;BME280;3876;42.204;24.686;2023-04-28T03:25:19;99705.84;;;7.88;79.83
7668;BME280;3876;42.204;24.686;2023-04-28T03:27:46;99704.28;;;7.81;79.94
7668;BME280;3876;42.204;24.686;2023-04-28T03:30:13;99711.09;;;7.79;79.48
7668;BME280;3876;42.204;24.686;2023-04-28T03:32:40;99709.34;;;7.84;79.54
7668;BME280;3876;42.204;24.686;2023-04-28T03:35:07;99724.66;;;7.83;79.25
7668;BME280;3876;42.204;24.686;2023-04-28T03:37:34;99728.06;;;7.82;79.27
7668;BME280;3876;42.204;24.686;2023-04-28T03:40:01;99724.66;;;7.83;79.41
7668;BME280;3876;42.204;24.686;2023-04-28T03:42:29;99721.34;;;7.76;79.20
7668;BME280;3876;42.204;24.686;2023-04-28T03:44:56;99742.47;;;7.86;79.33
7668;BME280;3876;42.204;24.686;2023-04-28T03:47:22;99737.38;;;7.87;79.08
7668;BME280;3876;42.204;24.686;2023-04-28T03:49:49;99706.97;;;7.71;78.89
7668;BME280;3876;42.204;24.686;2023-04-28T03:52:16;99739.78;;;7.97;78.85
7668;BME280;3876;42.204;24.686;2023-04-28T03:54:43;99737.25;;;7.95;78.44
7668;BME280;3876;42.204;24.686;2023-04-28T03:57:10;99738.00;;;8.02;77.75
7668;BME280;3876;42.204;24.686;2023-04-28T03:59:38;99746.50;;;8.04;77.98
7668;BME280;3876;42.204;24.686;2023-04-28T04:02:05;99743.94;;;8.04;77.34
7668;BME280;3876;42.204;24.686;2023-04-28T04:04:32;99736.38;;;7.98;77.78
7668;BME280;3876;42.204;24.686;2023-04-28T04:06:59;99737.19;;;7.98;77.18
7668;BME280;3876;42.204;24.686;2023-04-28T04:09:26;99716.91;;;7.89;76.99
7668;BME280;3876;42.204;24.686;2023-04-28T04:11:53;99759.06;;;8.17;77.02
7668;BME280;3876;42.204;24.686;2023-04-28T04:14:20;99760.69;;;8.21;77.21
7668;BME280;3876;42.204;24.686;2023-04-28T04:16:48;99772.53;;;8.28;76.81
7668;BME280;3876;42.204;24.686;2023-04-28T04:19:15;99775.78;;;8.39;76.13
7668;BME280;3876;42.204;24.686;2023-04-28T04:21:41;99784.13;;;8.51;75.50
7668;BME280;3876;42.204;24.686;2023-04-28T04:24:08;99787.25;;;8.66;75.55
7668;BME280;3876;42.204;24.686;2023-04-28T04:26:35;99787.91;;;8.80;74.32
7668;BME280;3876;42.204;24.686;2023-04-28T04:29:02;99790.22;;;8.94;73.30
7668;BME280;3876;42.204;24.686;2023-04-28T04:31:29;99781.41;;;9.10;72.48
7668;BME280;3876;42.204;24.686;2023-04-28T04:33:57;99792.00;;;9.36;71.84
7668;BME280;3876;42.204;24.686;2023-04-28T04:36:24;99801.00;;;9.56;70.89
7668;BME280;3876;42.204;24.686;2023-04-28T04:38:51;99808.28;;;9.75;69.71
7668;BME280;3876;42.204;24.686;2023-04-28T04:41:18;99812.13;;;9.96;69.66
7668;BME280;3876;42.204;24.686;2023-04-28T04:43:45;99808.25;;;10.18;68.70
7668;BME280;3876;42.204;24.686;2023-04-28T04:46:12;99800.97;;;10.38;67.62
7668;BME280;3876;42.204;24.686;2023-04-28T04:48:39;99811.75;;;10.51;67.07
7668;BME280;3876;42.204;24.686;2023-04-28T04:51:07;99816.34;;;10.74;66.20
7668;BME280;3876;42.204;24.686;2023-04-28T04:53:34;99817.59;;;10.93;66.27
7668;BME280;3876;42.204;24.686;2023-04-28T04:56:00;99823.84;;;11.15;65.04
7668;BME280;3876;42.204;24.686;2023-04-28T04:58:27;99813.38;;;11.24;65.13
7668;BME280;3876;42.204;24.686;2023-04-28T05:00:54;99819.09;;;11.34;63.80
7668;BME280;3876;42.204;24.686;2023-04-28T05:03:21;99836.06;;;11.39;64.12
7668;BME280;3876;42.204;24.686;2023-04-28T05:05:48;99835.47;;;11.60;64.04
7668;BME280;3876;42.204;24.686;2023-04-28T05:08:16;99835.88;;;11.78;63.88
7668;BME280;3876;42.204;24.686;2023-04-28T05:10:43;99839.69;;;11.95;62.96
7668;BME280;3876;42.204;24.686;2023-04-28T05:13:10;99846.34;;;12.01;60.98
7668;BME280;3876;42.204;24.686;2023-04-28T05:15:37;99854.66;;;12.09;62.73
7668;BME280;3876;42.204;24.686;2023-04-28T05:18:04;99844.72;;;12.28;61.49
7668;BME280;3876;42.204;24.686;2023-04-28T05:20:36;99840.44;;;12.54;62.10
7668;BME280;3876;42.204;24.686;2023-04-28T05:23:03;99849.09;;;12.52;60.43
7668;BME280;3876;42.204;24.686;2023-04-28T05:25:31;99847.13;;;12.60;61.30
7668;BME280;3876;42.204;24.686;2023-04-28T05:27:58;99847.69;;;12.70;60.59
7668;BME280;3876;42.204;24.686;2023-04-28T05:30:29;99850.75;;;12.81;59.77
7668;BME280;3876;42.204;24.686;2023-04-28T05:32:58;99859.16;;;13.13;59.89
7668;BME280;3876;42.204;24.686;2023-04-28T05:35:25;99869.19;;;13.21;58.65
7668;BME280;3876;42.204;24.686;2023-04-28T05:37:52;99862.03;;;13.29;58.18
7668;BME280;3876;42.204;24.686;2023-04-28T05:40:18;99868.88;;;13.55;57.67
7668;BME280;3876;42.204;24.686;2023-04-28T05:42:47;99857.50;;;13.60;57.66
7668;BME280;3876;42.204;24.686;2023-04-28T05:45:13;99868.19;;;13.75;56.83
7668;BME280;3876;42.204;24.686;2023-04-28T05:47:40;99872.00;;;13.88;55.57
7668;BME280;3876;42.204;24.686;2023-04-28T05:50:08;99877.09;;;13.89;55.12
7668;BME280;3876;42.204;24.686;2023-04-28T05:52:35;99879.47;;;13.95;55.98
7668;BME280;3876;42.204;24.686;2023-04-28T05:55:02;99883.31;;;14.30;55.35
7668;BME280;3876;42.204;24.686;2023-04-28T05:57:30;99873.00;;;14.53;54.35
7668;BME280;3876;42.204;24.686;2023-04-28T05:59:58;99878.94;;;14.55;53.78
7668;BME280;3876;42.204;24.686;2023-04-28T06:02:25;99879.41;;;14.65;52.66
7668;BME280;3876;42.204;24.686;2023-04-28T06:04:52;99877.53;;;14.90;53.19
7668;BME280;3876;42.204;24.686;2023-04-28T06:07:18;99876.44;;;15.17;52.10
7668;BME280;3876;42.204;24.686;2023-04-28T06:09:45;99874.50;;;15.43;48.71
7668;BME280;3876;42.204;24.686;2023-04-28T06:12:12;99876.63;;;15.73;50.16
7668;BME280;3876;42.204;24.686;2023-04-28T06:14:39;99877.84;;;16.04;50.81
7668;BME280;3876;42.204;24.686;2023-04-28T06:17:07;99881.94;;;16.28;49.87
7668;BME280;3876;42.204;24.686;2023-04-28T06:19:34;99885.91;;;16.35;48.68
7668;BME280;3876;42.204;24.686;2023-04-28T06:22:01;99881.31;;;16.60;47.70
7668;BME280;3876;42.204;24.686;2023-04-28T06:24:28;99884.88;;;16.76;46.48
7668;BME280;3876;42.204;24.686;2023-04-28T06:26:55;99879.22;;;17.03;46.44
7668;BME280;3876;42.204;24.686;2023-04-28T06:29:22;99887.03;;;17.37;44.93
7668;BME280;3876;42.204;24.686;2023-04-28T06:31:49;99887.81;;;17.56;44.24
7668;BME280;3876;42.204;24.686;2023-04-28T06:34:18;99881.19;;;17.83;45.87
7668;BME280;3876;42.204;24.686;2023-04-28T06:36:44;99887.13;;;18.18;43.39
7668;BME280;3876;42.204;24.686;2023-04-28T06:39:11;99875.59;;;18.24;45.05
7668;BME280;3876;42.204;24.686;2023-04-28T06:41:38;99889.91;;;18.47;44.95
7668;BME280;3876;42.204;24.686;2023-04-28T06:44:05;99881.81;;;18.68;44.92
7668;BME280;3876;42.204;24.686;2023-04-28T06:46:32;99895.53;;;18.86;41.52
7668;BME280;3876;42.204;24.686;2023-04-28T06:48:59;99898.28;;;18.99;39.52
7668;BME280;3876;42.204;24.686;2023-04-28T06:51:27;99892.97;;;19.16;38.11
7668;BME280;3876;42.204;24.686;2023-04-28T06:53:54;99889.84;;;19.25;37.24
7668;BME280;3876;42.204;24.686;2023-04-28T06:56:21;99890.84;;;19.52;37.40
7668;BME280;3876;42.204;24.686;2023-04-28T06:58:47;99898.50;;;19.69;40.72
7668;BME280;3876;42.204;24.686;2023-04-28T07:01:14;99894.13;;;19.70;38.64
7668;BME280;3876;42.204;24.686;2023-04-28T07:03:41;99887.91;;;19.86;37.16
7668;BME280;3876;42.204;24.686;2023-04-28T07:06:08;99891.34;;;20.01;37.69
7668;BME280;3876;42.204;24.686;2023-04-28T07:08:37;99868.78;;;19.73;37.69
7668;BME280;3876;42.204;24.686;2023-04-28T07:11:04;99893.47;;;19.95;40.45
7668;BME280;3876;42.204;24.686;2023-04-28T07:13:31;99888.25;;;19.66;39.74
7668;BME280;3876;42.204;24.686;2023-04-28T07:15:58;99891.03;;;19.77;40.17
7668;BME280;3876;42.204;24.686;2023-04-28T07:18:25;99895.44;;;19.77;41.59
7668;BME280;3876;42.204;24.686;2023-04-28T07:20:52;99896.38;;;19.90;39.19
7668;BME280;3876;42.204;24.686;2023-04-28T07:23:18;99891.53;;;20.12;40.30
7668;BME280;3876;42.204;24.686;2023-04-28T07:25:47;99896.47;;;20.31;38.31
7668;BME280;3876;42.204;24.686;2023-04-28T07:28:13;99896.81;;;20.39;39.00
7668;BME280;3876;42.204;24.686;2023-04-28T07:30:40;99899.41;;;20.39;39.77
7668;BME280;3876;42.204;24.686;2023-04-28T07:33:07;99895.16;;;20.38;39.31
7668;BME280;3876;42.204;24.686;2023-04-28T07:35:34;99902.91;;;20.66;37.52
7668;BME280;3876;42.204;24.686;2023-04-28T07:38:01;99904.38;;;20.70;37.43
7668;BME280;3876;42.204;24.686;2023-04-28T07:40:28;99895.31;;;20.49;36.71
7668;BME280;3876;42.204;24.686;2023-04-28T07:42:56;99892.81;;;20.33;38.47
7668;BME280;3876;42.204;24.686;2023-04-28T07:45:23;99890.78;;;19.96;39.04
7668;BME280;3876;42.204;24.686;2023-04-28T07:47:50;99888.91;;;19.70;39.65
7668;BME280;3876;42.204;24.686;2023-04-28T07:50:17;99887.50;;;19.50;38.98
7668;BME280;3876;42.204;24.686;2023-04-28T07:52:44;99890.34;;;19.46;38.88
7668;BME280;3876;42.204;24.686;2023-04-28T07:55:11;99877.78;;;19.38;38.91
7668;BME280;3876;42.204;24.686;2023-04-28T07:57:37;99878.63;;;18.79;39.43
7668;BME280;3876;42.204;24.686;2023-04-28T08:00:07;99877.00;;;18.92;41.54
7668;BME280;3876;42.204;24.686;2023-04-28T08:02:36;99872.00;;;19.19;41.43
7668;BME280;3876;42.204;24.686;2023-04-28T08:05:03;99869.66;;;19.44;39.54
7668;BME280;3876;42.204;24.686;2023-04-28T08:07:31;99865.78;;;19.51;40.53
7668;BME280;3876;42.204;24.686;2023-04-28T08:09:58;99872.38;;;19.57;39.83
7668;BME280;3876;42.204;24.686;2023-04-28T08:12:25;99870.63;;;19.57;41.25
7668;BME280;3876;42.204;24.686;2023-04-28T08:14:52;99868.47;;;19.64;41.63
7668;BME280;3876;42.204;24.686;2023-04-28T08:17:20;99852.22;;;19.88;40.48
7668;BME280;3876;42.204;24.686;2023-04-28T08:19:47;99864.28;;;20.18;44.20
7668;BME280;3876;42.204;24.686;2023-04-28T08:22:14;99873.38;;;20.11;39.84
7668;BME280;3876;42.204;24.686;2023-04-28T08:24:41;99860.94;;;19.87;40.71
7668;BME280;3876;42.204;24.686;2023-04-28T08:27:08;99866.81;;;20.05;42.17
7668;BME280;3876;42.204;24.686;2023-04-28T08:29:35;99872.09;;;20.32;40.53
7668;BME280;3876;42.204;24.686;2023-04-28T08:32:01;99868.19;;;20.11;40.43
7668;BME280;3876;42.204;24.686;2023-04-28T08:34:32;99863.56;;;20.02;40.30
7668;BME280;3876;42.204;24.686;2023-04-28T08:36:59;99860.56;;;20.22;40.58
7668;BME280;3876;42.204;24.686;2023-04-28T08:39:26;99861.03;;;19.72;42.15
7668;BME280;3876;42.204;24.686;2023-04-28T08:41:53;99854.63;;;19.49;42.66
7668;BME280;3876;42.204;24.686;2023-04-28T08:44:20;99851.31;;;19.31;42.93
7668;BME280;3876;42.204;24.686;2023-04-28T08:46:48;99850.97;;;18.62;42.58
7668;BME280;3876;42.204;24.686;2023-04-28T08:49:17;99847.44;;;18.79;44.54
7668;BME280;3876;42.204;24.686;2023-04-28T08:51:48;99840.34;;;18.97;43.20
7668;BME280;3876;42.204;24.686;2023-04-28T08:54:16;99846.19;;;19.30;42.34
7668;BME280;3876;42.204;24.686;2023-04-28T08:56:45;99846.81;;;19.49;41.21
7668;BME280;3876;42.204;24.686;2023-04-28T08:59:12;99841.63;;;19.77;41.02
7668;BME280;3876;42.204;24.686;2023-04-28T09:01:38;99837.31;;;20.19;43.45
7668;BME280;3876;42.204;24.686;2023-04-28T09:04:05;99842.38;;;19.79;40.01
7668;BME280;3876;42.204;24.686;2023-04-28T09:06:34;99836.59;;;19.88;40.37
7668;BME280;3876;42.204;24.686;2023-04-28T09:09:22;99839.97;;;19.76;40.28
7668;BME280;3876;42.204;24.686;2023-04-28T09:11:51;99818.69;;;19.12;40.99
7668;BME280;3876;42.204;24.686;2023-04-28T09:14:19;99836.88;;;19.42;40.25
7668;BME280;3876;42.204;24.686;2023-04-28T09:16:47;99843.59;;;19.74;39.04
7668;BME280;3876;42.204;24.686;2023-04-28T09:19:14;99841.91;;;19.73;41.74
7668;BME280;3876;42.204;24.686;2023-04-28T09:21:48;99839.22;;;19.88;40.84
7668;BME280;3876;42.204;24.686;2023-04-28T09:24:35;99832.91;;;19.92;43.30
7668;BME280;3876;42.204;24.686;2023-04-28T09:27:05;99832.94;;;20.19;40.10
7668;BME280;3876;42.204;24.686;2023-04-28T09:29:35;99836.59;;;19.46;38.86
7668;BME280;3876;42.204;24.686;2023-04-28T09:32:12;99824.44;;;19.03;41.95
7668;BME280;3876;42.204;24.686;2023-04-28T09:34:43;99826.63;;;18.95;37.99
7668;BME280;3876;42.204;24.686;2023-04-28T09:37:14;99825.75;;;18.80;38.29
7668;BME280;3876;42.204;24.686;2023-04-28T09:39:44;99822.16;;;18.67;41.21
7668;BME280;3876;42.204;24.686;2023-04-28T09:42:29;99821.47;;;18.32;40.95
7668;BME280;3876;42.204;24.686;2023-04-28T09:44:56;99809.13;;;18.53;41.04
7668;BME280;3876;42.204;24.686;2023-04-28T09:47:23;99809.88;;;18.84;42.31
7668;BME280;3876;42.204;24.686;2023-04-28T09:49:54;99810.94;;;18.66;41.28
7668;BME280;3876;42.204;24.686;2023-04-28T09:52:21;99811.13;;;18.63;39.54
7668;BME280;3876;42.204;24.686;2023-04-28T09:54:50;99806.66;;;18.95;44.15
7668;BME280;3876;42.204;24.686;2023-04-28T09:57:18;99791.03;;;19.11;41.71
7668;BME280;3876;42.204;24.686;2023-04-28T09:59:47;99799.69;;;19.25;40.15
7668;BME280;3876;42.204;24.686;2023-04-28T10:02:15;99790.91;;;19.70;41.83
7668;BME280;3876;42.204;24.686;2023-04-28T10:04:43;99789.25;;;20.10;44.96
7668;BME280;3876;42.204;24.686;2023-04-28T10:07:11;99789.13;;;20.26;41.57
7668;BME280;3876;42.204;24.686;2023-04-28T10:09:39;99787.94;;;20.17;38.30
7668;BME280;3876;42.204;24.686;2023-04-28T10:12:10;99789.69;;;19.90;39.25
7668;BME280;3876;42.204;24.686;2023-04-28T10:14:37;99789.38;;;19.95;41.46
7668;BME280;3876;42.204;24.686;2023-04-28T10:17:03;99784.94;;;19.82;39.14
7668;BME280;3876;42.204;24.686;2023-04-28T10:19:31;99778.59;;;20.01;39.80
7668;BME280;3876;42.204;24.686;2023-04-28T10:22:07;99772.84;;;19.39;38.13
7668;BME280;3876;42.204;24.686;2023-04-28T10:24:50;99775.81;;;19.33;39.22
7668;BME280;3876;42.204;24.686;2023-04-28T10:27:29;99772.13;;;19.37;39.10
7668;BME280;3876;42.204;24.686;2023-04-28T10:30:09;99774.16;;;19.32;40.66
7668;BME280;3876;42.204;24.686;2023-04-28T10:32:36;99773.44;;;19.44;38.89
7668;BME280;3876;42.204;24.686;2023-04-28T10:35:39;99766.34;;;19.74;37.71
7668;BME280;3876;42.204;24.686;2023-04-28T10:38:08;99751.84;;;19.99;38.27
7668;BME280;3876;42.204;24.686;2023-04-28T10:40:36;99752.06;;;20.22;42.25
7668;BME280;3876;42.204;24.686;2023-04-28T10:43:05;99750.66;;;20.31;40.33
7668;BME280;3876;42.204;24.686;2023-04-28T10:48:56;99740.56;;;20.78;39.44
7668;BME280;3876;42.204;24.686;2023-04-28T10:51:33;99745.34;;;20.84;39.56
7668;BME280;3876;42.204;24.686;2023-04-28T10:54:24;99725.91;;;20.51;40.07
7668;BME280;3876;42.204;24.686;2023-04-28T10:57:17;99736.38;;;20.36;38.50
7668;BME280;3876;42.204;24.686;2023-04-28T10:59:47;99733.63;;;20.52;38.63
7668;BME280;3876;42.204;24.686;2023-04-28T11:02:39;99731.78;;;20.27;38.60
7668;BME280;3876;42.204;24.686;2023-04-28T11:05:10;99730.38;;;20.49;39.49
7668;BME280;3876;42.204;24.686;2023-04-28T11:07:37;99735.75;;;20.72;39.78
7668;BME280;3876;42.204;24.686;2023-04-28T11:10:04;99707.53;;;20.39;35.52
7668;BME280;3876;42.204;24.686;2023-04-28T11:12:31;99728.84;;;20.05;37.23
7668;BME280;3876;42.204;24.686;2023-04-28T11:15:10;99728.47;;;19.70;37.23
7668;BME280;3876;42.204;24.686;2023-04-28T11:17:39;99728.94;;;19.63;38.70
7668;BME280;3876;42.204;24.686;2023-04-28T11:20:11;99715.47;;;19.70;37.54
7668;BME280;3876;42.204;24.686;2023-04-28T11:22:38;99726.88;;;19.82;37.65
7668;BME280;3876;42.204;24.686;2023-04-28T11:25:06;99715.16;;;19.75;37.50
7668;BME280;3876;42.204;24.686;2023-04-28T11:27:33;99726.03;;;19.81;38.07
7668;BME280;3876;42.204;24.686;2023-04-28T11:30:18;99725.63;;;19.87;38.04
7668;BME280;3876;42.204;24.686;2023-04-28T11:32:48;99732.19;;;19.52;39.44
7668;BME280;3876;42.204;24.686;2023-04-28T11:35:16;99716.88;;;19.05;40.54
7668;BME280;3876;42.204;24.686;2023-04-28T11:37:42;99717.22;;;18.99;41.02
7668;BME280;3876;42.204;24.686;2023-04-28T11:40:09;99699.88;;;19.00;40.74
7668;BME280;3876;42.204;24.686;2023-04-28T11:42:46;99714.56;;;19.15;39.53
7668;BME280;3876;42.204;24.686;2023-04-28T11:45:14;99717.50;;;19.23;40.29
7668;BME280;3876;42.204;24.686;2023-04-28T11:47:41;99714.53;;;19.01;40.04
7668;BME280;3876;42.204;24.686;2023-04-28T11:50:08;99705.59;;;18.91;40.25
7668;BME280;3876;42.204;24.686;2023-04-28T11:52:35;99703.09;;;19.03;40.72
7668;BME280;3876;42.204;24.686;2023-04-28T11:55:02;99703.88;;;19.33;38.67
7668;BME280;3876;42.204;24.686;2023-04-28T11:57:28;99700.47;;;19.47;38.86
7668;BME280;3876;42.204;24.686;2023-04-28T12:00:11;99689.41;;;19.58;38.62
7668;BME280;3876;42.204;24.686;2023-04-28T12:02:40;99662.38;;;19.46;38.61
7668;BME280;3876;42.204;24.686;2023-04-28T12:05:07;99658.56;;;19.37;38.04
7668;BME280;3876;42.204;24.686;2023-04-28T12:07:40;99679.97;;;19.69;39.05
7668;BME280;3876;42.204;24.686;2023-04-28T12:10:12;99668.94;;;19.66;40.15
7668;BME280;3876;42.204;24.686;2023-04-28T12:12:40;99664.19;;;19.72;40.75
7668;BME280;3876;42.204;24.686;2023-04-28T12:15:08;99666.78;;;19.58;38.55
7668;BME280;3876;42.204;24.686;2023-04-28T12:17:36;99656.44;;;19.44;39.00
7668;BME280;3876;42.204;24.686;2023-04-28T12:20:07;99656.75;;;19.66;41.17
7668;BME280;3876;42.204;24.686;2023-04-28T12:22:43;99647.88;;;19.56;40.02
7668;BME280;3876;42.204;24.686;2023-04-28T12:25:12;99645.00;;;19.47;40.59
7668;BME280;3876;42.204;24.686;2023-04-28T12:27:56;99650.13;;;19.48;40.27
7668;BME280;3876;42.204;24.686;2023-04-28T12:30:23;99638.69;;;19.51;40.88
7668;BME280;3876;42.204;24.686;2023-04-28T12:32:50;99613.84;;;19.18;42.80
7668;BME280;3876;42.204;24.686;2023-04-28T12:35:20;99647.50;;;19.20;40.83
7668;BME280;3876;42.204;24.686;2023-04-28T12:37:47;99650.78;;;18.95;40.24
7668;BME280;3876;42.204;24.686;2023-04-28T12:40:14;99640.94;;;18.86;41.72
7668;BME280;3876;42.204;24.686;2023-04-28T12:42:41;99642.13;;;18.80;41.15
7668;BME280;3876;42.204;24.686;2023-04-28T12:45:08;99644.94;;;18.92;41.51
7668;BME280;3876;42.204;24.686;2023-04-28T12:47:35;99637.69;;;19.11;40.67
7668;BME280;3876;42.204;24.686;2023-04-28T12:50:03;99631.56;;;19.12;40.14
7668;BME280;3876;42.204;24.686;2023-04-28T12:52:31;99629.06;;;19.10;39.47
7668;BME280;3876;42.204;24.686;2023-04-28T12:54:59;99638.97;;;19.04;38.70
7668;BME280;3876;42.204;24.686;2023-04-28T12:57:26;99608.19;;;18.98;41.68
7668;BME280;3876;42.204;24.686;2023-04-28T12:59:56;99614.00;;;19.29;39.07
7668;BME280;3876;42.204;24.686;2023-04-28T13:02:23;99616.31;;;19.48;40.92
7668;BME280;3876;42.204;24.686;2023-04-28T13:04:51;99615.34;;;19.08;39.84
7668;BME280;3876;42.204;24.686;2023-04-28T13:07:18;99600.84;;;19.18;41.41
7668;BME280;3876;42.204;24.686;2023-04-28T13:09:46;99598.69;;;19.25;40.40
7668;BME280;3876;42.204;24.686;2023-04-28T13:12:13;99604.38;;;19.03;40.37
7668;BME280;3876;42.204;24.686;2023-04-28T13:14:40;99599.00;;;19.06;40.24
7668;BME280;3876;42.204;24.686;2023-04-28T13:17:06;99587.66;;;19.07;40.95
7668;BME280;3876;42.204;24.686;2023-04-28T13:19:34;99590.00;;;18.98;40.01
7668;BME280;3876;42.204;24.686;2023-04-28T13:22:01;99563.13;;;18.70;40.23